createdAt,value
2018-11-26T00:00:26.963Z,32.20
2018-11-26T00:02:54.402Z,37.97
2018-11-26T00:05:21.833Z,35.90
2018-11-26T00:07:49.259Z,31.20
2018-11-26T00:10:16.694Z,37.95
2018-11-26T00:12:44.119Z,33.90
2018-11-26T00:15:11.612Z,38.08
2018-11-26T00:17:39.063Z,34.40
2018-11-26T00:20:06.530Z,36.53
2018-11-26T00:22:34.631Z,33.10
2018-11-26T00:25:02.072Z,39.83
2018-11-26T00:27:29.496Z,42.10
2018-11-26T00:29:56.923Z,34.77
2018-11-26T00:32:24.355Z,45.03
2018-11-26T00:34:51.887Z,47.98
2018-11-26T00:37:20.166Z,52.63
2018-11-26T00:39:47.618Z,52.03
2018-11-26T00:42:15.057Z,50.70
2018-11-26T00:44:42.483Z,52.77
2018-11-26T00:47:10.186Z,53.85
2018-11-26T00:49:37.614Z,52.05
2018-11-26T00:52:05.119Z,53.87
2018-11-26T00:54:32.547Z,52.73
2018-11-26T00:56:59.974Z,50.63
2018-11-26T00:59:27.411Z,54.08
2018-11-26T01:01:54.845Z,59.13
2018-11-26T01:04:22.285Z,56.00
2018-11-26T01:06:49.969Z,56.33
2018-11-26T01:09:17.416Z,57.00
2018-11-26T01:11:44.846Z,55.83
2018-11-26T01:14:12.279Z,55.07
2018-11-26T01:16:39.705Z,57.20
2018-11-26T01:19:07.159Z,60.20
2018-11-26T01:21:34.679Z,58.48
2018-11-26T01:24:02.037Z,58.67
2018-11-26T01:26:29.454Z,67.00
2018-11-26T01:28:56.925Z,57.27
2018-11-26T01:31:24.304Z,62.20
2018-11-26T01:33:52.098Z,63.87
2018-11-26T01:36:19.526Z,54.60
2018-11-26T01:38:46.959Z,60.12
2018-11-26T01:41:14.406Z,55.60
2018-11-26T01:43:41.846Z,64.80
2018-11-26T01:46:09.280Z,62.07
2018-11-26T01:48:36.744Z,64.20
2018-11-26T01:51:04.198Z,66.03
2018-11-26T01:53:31.640Z,59.90
2018-11-26T01:55:59.114Z,64.80
2018-11-26T01:58:26.626Z,64.87
2018-11-26T02:00:54.054Z,66.83
2018-11-26T02:03:21.478Z,70.70
2018-11-26T02:05:48.922Z,77.00
2018-11-26T02:08:16.342Z,77.00
2018-11-26T02:10:43.776Z,78.17
2018-11-26T02:13:11.221Z,82.63
2018-11-26T02:15:39.569Z,88.40
2018-11-26T02:18:06.994Z,75.63
2018-11-26T02:20:34.433Z,84.23
2018-11-26T02:23:01.866Z,87.30
2018-11-26T02:25:29.339Z,86.10
2018-11-26T02:27:56.763Z,83.03
2018-11-26T02:30:24.195Z,87.37
2018-11-26T02:32:51.626Z,83.83
2018-11-26T02:35:19.066Z,78.73
2018-11-26T02:37:46.491Z,78.07
2018-11-26T02:40:13.941Z,87.90
2018-11-26T02:42:41.423Z,75.37
2018-11-26T02:45:08.864Z,78.65
2018-11-26T02:47:36.344Z,84.10
2018-11-26T02:50:03.773Z,78.45
2018-11-26T02:52:31.249Z,74.87
2018-11-26T02:54:58.687Z,80.70
2018-11-26T02:57:26.178Z,78.37
2018-11-26T02:59:53.620Z,71.40
2018-11-26T03:02:21.051Z,76.97
2018-11-26T03:04:48.546Z,80.62
2018-11-26T03:07:15.983Z,75.23
2018-11-26T03:09:43.410Z,68.28
2018-11-26T03:12:10.842Z,78.40
2018-11-26T03:14:38.271Z,63.80
2018-11-26T03:17:05.726Z,71.97
2018-11-26T03:19:33.318Z,69.85
2018-11-26T03:22:00.750Z,73.73
2018-11-26T03:24:28.177Z,74.82
2018-11-26T03:26:55.611Z,78.17
2018-11-26T03:29:23.044Z,68.75
2018-11-26T03:31:50.578Z,69.37
2018-11-26T03:34:18.015Z,74.20
2018-11-26T03:36:45.546Z,64.83
2018-11-26T03:39:12.909Z,68.85
2018-11-26T03:41:40.339Z,71.53
2018-11-26T03:44:07.762Z,71.40
2018-11-26T03:46:35.190Z,65.77
2018-11-26T03:49:02.619Z,73.63
2018-11-26T03:51:30.134Z,75.67
2018-11-26T03:53:57.553Z,69.15
2018-11-26T03:56:24.991Z,74.67
2018-11-26T03:58:52.427Z,70.32
2018-11-26T04:01:19.851Z,68.53
2018-11-26T04:03:47.329Z,70.17
2018-11-26T04:06:14.770Z,69.57
2018-11-26T04:08:42.195Z,70.83
2018-11-26T04:11:09.631Z,76.13
2018-11-26T04:13:37.058Z,69.92
2018-11-26T04:16:04.502Z,88.03
2018-11-26T04:18:31.966Z,79.42
2018-11-26T04:20:59.432Z,69.60
2018-11-26T04:23:26.854Z,73.30
2018-11-26T04:25:54.330Z,71.73
2018-11-26T04:28:21.754Z,72.27
2018-11-26T04:30:49.191Z,73.37
2018-11-26T04:33:16.626Z,68.33
2018-11-26T04:35:44.050Z,44.43
2018-11-26T04:38:11.478Z,69.35
2018-11-26T04:40:38.909Z,82.47
2018-11-26T04:43:06.329Z,81.47
2018-11-26T04:45:33.785Z,69.50
2018-11-26T04:48:01.218Z,78.12
2018-11-26T04:50:28.659Z,79.73
2018-11-26T04:52:56.095Z,75.83
2018-11-26T04:55:24.286Z,78.17
2018-11-26T04:57:51.735Z,77.37
2018-11-26T05:00:19.157Z,71.07
2018-11-26T05:02:46.585Z,66.30
2018-11-26T05:05:14.214Z,79.07
2018-11-26T05:07:41.676Z,83.30
2018-11-26T05:10:09.114Z,71.87
2018-11-26T05:12:36.641Z,72.03
2018-11-26T05:15:04.069Z,72.20
2018-11-26T05:17:31.494Z,67.97
2018-11-26T05:19:58.926Z,67.13
2018-11-26T05:22:26.362Z,76.60
2018-11-26T05:24:53.826Z,73.67
2018-11-26T05:27:21.254Z,73.03
2018-11-26T05:29:48.737Z,72.87
2018-11-26T05:32:16.209Z,76.27
2018-11-26T05:34:43.634Z,72.62
2018-11-26T05:37:11.116Z,77.47
2018-11-26T05:39:38.578Z,67.03
2018-11-26T05:42:05.998Z,75.60
2018-11-26T05:44:33.498Z,70.78
2018-11-26T05:47:00.918Z,75.97
2018-11-26T05:49:28.346Z,65.12
2018-11-26T05:51:55.774Z,69.67
2018-11-26T05:54:23.197Z,74.33
2018-11-26T05:56:50.680Z,67.77
2018-11-26T05:59:18.101Z,67.22
2018-11-26T06:01:45.590Z,74.47
2018-11-26T06:04:13.045Z,71.17
2018-11-26T06:06:40.502Z,67.17
2018-11-26T06:09:07.944Z,71.75
2018-11-26T06:11:35.417Z,74.73
2018-11-26T06:14:02.843Z,73.17
2018-11-26T06:16:30.334Z,77.77
2018-11-26T06:18:57.799Z,71.50
2018-11-26T06:21:25.227Z,57.17
2018-11-26T06:23:52.806Z,78.60
2018-11-26T06:26:20.258Z,68.60
2018-11-26T06:28:47.678Z,76.97
2018-11-26T06:31:15.187Z,70.43
2018-11-26T06:33:42.682Z,79.70
2018-11-26T06:36:10.107Z,87.27
2018-11-26T06:38:37.538Z,66.97
2018-11-26T06:41:05.009Z,73.53
2018-11-26T06:43:32.442Z,75.27
2018-11-26T06:45:59.875Z,71.07
2018-11-26T06:48:27.381Z,76.63
2018-11-26T06:50:54.810Z,88.70
2018-11-26T06:53:22.303Z,79.83
2018-11-26T06:55:49.738Z,72.78
2018-11-26T06:58:17.217Z,84.40
2018-11-26T07:00:44.643Z,78.57
2018-11-26T07:03:12.077Z,81.90
2018-11-26T07:05:39.492Z,82.05
2018-11-26T07:08:06.928Z,70.93
2018-11-26T07:10:34.349Z,82.55
2018-11-26T07:13:01.770Z,77.97
2018-11-26T07:15:29.190Z,86.17
2018-11-26T07:17:56.617Z,80.70
2018-11-26T07:20:24.503Z,78.05
2018-11-26T07:22:51.930Z,73.17
2018-11-26T07:25:20.966Z,82.17
2018-11-26T07:27:48.390Z,74.03
2018-11-26T07:30:15.805Z,80.83
2018-11-26T07:32:43.257Z,77.80
2018-11-26T07:35:10.955Z,71.65
2018-11-26T07:37:38.389Z,86.90
2018-11-26T07:40:05.854Z,82.73
2018-11-26T07:42:33.282Z,72.70
2018-11-26T07:45:00.701Z,78.20
2018-11-26T07:47:28.153Z,86.33
2018-11-26T07:49:55.581Z,76.03
2018-11-26T07:52:23.007Z,82.55
2018-11-26T07:54:50.425Z,77.80
2018-11-26T07:57:17.938Z,79.25
2018-11-26T07:59:45.393Z,91.60
2018-11-26T08:02:12.824Z,81.63
2018-11-26T08:04:40.305Z,94.27
2018-11-26T08:07:07.770Z,87.40
2018-11-26T08:09:35.206Z,89.40
2018-11-26T08:12:02.629Z,73.28
2018-11-26T08:14:30.053Z,88.37
2018-11-26T08:16:57.506Z,90.43
2018-11-26T08:19:24.954Z,83.40
2018-11-26T08:21:52.414Z,90.20
2018-11-26T08:24:19.838Z,83.20
2018-11-26T08:26:47.619Z,91.87
2018-11-26T08:29:15.046Z,85.37
2018-11-26T08:31:42.474Z,91.37
2018-11-26T08:34:09.901Z,94.83
2018-11-26T08:36:43.470Z,65.42
2018-11-26T08:39:15.094Z,86.43
2018-11-26T08:41:48.022Z,83.33
2018-11-26T08:44:19.642Z,85.97
2018-11-26T08:46:47.069Z,87.60
2018-11-26T08:49:18.677Z,81.57
2018-11-26T08:51:46.511Z,74.00
2018-11-26T08:54:14.037Z,78.60
2018-11-26T08:56:41.493Z,78.22
2018-11-26T08:59:10.015Z,84.77
2018-11-26T09:01:42.491Z,64.85
2018-11-26T09:04:11.101Z,77.83
2018-11-26T09:06:38.530Z,76.17
2018-11-26T09:09:06.063Z,69.30
2018-11-26T09:11:33.483Z,63.10
2018-11-26T09:14:00.913Z,72.10
2018-11-26T09:16:28.343Z,66.67
2018-11-26T09:18:55.770Z,78.62
2018-11-26T09:21:23.200Z,73.13
2018-11-26T09:23:50.634Z,72.67
2018-11-26T09:26:18.514Z,76.20
2018-11-26T09:28:45.934Z,84.93
2018-11-26T09:31:13.355Z,74.00
2018-11-26T09:33:40.836Z,79.27
2018-11-26T09:36:08.245Z,84.85
2018-11-26T09:38:35.756Z,70.73
2018-11-26T09:41:03.193Z,53.52
2018-11-26T09:43:30.662Z,86.70
2018-11-26T09:45:58.120Z,87.37
2018-11-26T09:48:25.545Z,73.23
2018-11-26T09:50:52.961Z,72.78
2018-11-26T09:53:20.400Z,83.23
2018-11-26T09:55:47.832Z,69.30
2018-11-26T09:58:15.265Z,53.50
2018-11-26T10:00:42.684Z,55.35
2018-11-26T10:03:10.213Z,55.33
2018-11-26T10:05:38.007Z,55.45
2018-11-26T10:08:05.453Z,48.73
2018-11-26T10:10:33.555Z,56.68
2018-11-26T10:13:00.976Z,35.40
2018-11-26T10:15:28.393Z,49.10
2018-11-26T10:17:55.812Z,48.98
2018-11-26T10:20:23.242Z,47.37
2018-11-26T10:22:50.674Z,46.65
2018-11-26T10:25:18.165Z,51.80
2018-11-26T10:27:45.621Z,42.93
2018-11-26T10:30:13.177Z,36.17
2018-11-26T10:32:40.610Z,49.58
2018-11-26T10:35:08.051Z,41.37
2018-11-26T10:37:35.567Z,38.77
2018-11-26T10:40:02.989Z,45.93
2018-11-26T10:42:30.419Z,43.33
2018-11-26T10:44:57.922Z,43.10
2018-11-26T10:47:25.426Z,42.13
2018-11-26T10:49:52.871Z,37.42
2018-11-26T10:52:20.303Z,40.93
2018-11-26T10:54:48.157Z,37.33
2018-11-26T10:57:15.163Z,33.93
2018-11-26T10:59:42.596Z,40.83
2018-11-26T11:02:15.540Z,33.10
2018-11-26T11:04:47.588Z,36.70
2018-11-26T11:07:10.527Z,40.67
2018-11-26T11:09:38.011Z,36.27
2018-11-26T11:12:05.371Z,35.17
2018-11-26T11:14:32.846Z,38.63
2018-11-26T11:17:00.277Z,42.25
2018-11-26T11:19:27.699Z,38.87
2018-11-26T11:21:55.122Z,35.27
2018-11-26T11:24:22.610Z,34.37
2018-11-26T11:26:50.036Z,33.58
2018-11-26T11:29:17.464Z,36.00
2018-11-26T11:31:45.335Z,37.38
2018-11-26T11:34:12.765Z,31.77
2018-11-26T11:36:40.828Z,36.27
2018-11-26T11:39:08.348Z,35.70
2018-11-26T11:41:35.762Z,36.40
2018-11-26T11:44:03.196Z,30.80
2018-11-26T11:46:30.715Z,35.13
2018-11-26T11:48:58.176Z,30.73
2018-11-26T11:51:25.604Z,31.60
2018-11-26T11:53:53.107Z,34.57
2018-11-26T11:56:20.551Z,31.35
2018-11-26T11:58:47.989Z,34.70
2018-11-26T12:01:15.412Z,31.12
2018-11-26T12:03:42.922Z,33.33
2018-11-26T12:06:11.358Z,32.35
2018-11-26T12:08:38.468Z,35.37
2018-11-26T12:11:05.915Z,33.37
2018-11-26T12:13:33.340Z,33.78
2018-11-26T12:16:00.792Z,32.70
2018-11-26T12:18:28.224Z,30.32
2018-11-26T12:20:55.659Z,33.93
2018-11-26T12:23:23.097Z,36.73
2018-11-26T12:25:50.560Z,32.17
2018-11-26T12:28:17.980Z,33.30
2018-11-26T12:30:45.412Z,33.20
2018-11-26T12:33:12.839Z,37.33
2018-11-26T12:35:40.258Z,36.13
2018-11-26T12:38:07.744Z,34.58
2018-11-26T12:40:35.172Z,32.37
2018-11-26T12:43:02.608Z,37.20
2018-11-26T12:45:30.420Z,43.30
2018-11-26T12:47:58.055Z,42.90
2018-11-26T12:50:25.491Z,39.53
2018-11-26T12:52:52.911Z,45.63
2018-11-26T12:55:20.348Z,39.38
2018-11-26T12:57:47.810Z,41.63
2018-11-26T13:00:15.274Z,39.65
2018-11-26T13:02:42.705Z,45.47
2018-11-26T13:05:10.118Z,47.53
2018-11-26T13:07:37.554Z,51.47
2018-11-26T13:10:04.997Z,56.60
2018-11-26T13:12:32.436Z,59.07
2018-11-26T13:15:00.696Z,46.23
2018-11-26T13:17:27.311Z,58.47
2018-11-26T13:19:54.831Z,73.45
2018-11-26T13:22:22.258Z,54.03
2018-11-26T13:24:49.700Z,55.65
2018-11-26T13:27:17.124Z,48.23
2018-11-26T13:29:44.660Z,47.83
2018-11-26T13:32:12.086Z,52.90
2018-11-26T13:34:39.825Z,53.68
2018-11-26T13:37:07.415Z,50.77
2018-11-26T13:39:34.839Z,55.00
2018-11-26T13:42:02.271Z,55.33
2018-11-26T13:44:30.204Z,55.67
2018-11-26T13:46:57.632Z,54.90
2018-11-26T13:49:25.729Z,59.67
2018-11-26T13:51:53.204Z,56.55
2018-11-26T13:54:20.628Z,62.40
2018-11-26T13:56:48.060Z,64.55
2018-11-26T13:59:15.552Z,60.10
2018-11-26T14:01:43.024Z,69.27
2018-11-26T14:04:10.501Z,68.63
2018-11-26T14:06:37.927Z,62.37
2018-11-26T14:09:05.947Z,65.80
2018-11-26T14:11:33.388Z,35.78
2018-11-26T14:14:01.390Z,50.87
2018-11-26T14:16:28.815Z,53.80
2018-11-26T14:18:56.267Z,43.28
2018-11-26T14:21:23.724Z,43.17
2018-11-26T14:23:51.248Z,40.63
2018-11-26T14:26:18.746Z,35.37
2018-11-26T14:28:46.177Z,32.17
2018-11-26T14:31:13.615Z,26.12
2018-11-26T14:33:41.058Z,35.13
2018-11-26T14:36:08.487Z,34.27
2018-11-26T14:38:36.230Z,29.87
2018-11-26T14:41:03.691Z,27.87
2018-11-26T14:43:31.181Z,29.47
2018-11-26T14:45:58.572Z,32.10
2018-11-26T14:48:26.018Z,28.70
2018-11-26T14:50:53.444Z,30.23
2018-11-26T14:53:20.871Z,27.80
2018-11-26T14:55:48.340Z,28.33
2018-11-26T14:58:15.765Z,28.45
2018-11-26T15:00:43.251Z,28.80
2018-11-26T15:03:10.677Z,27.87
2018-11-26T15:05:38.112Z,32.43
2018-11-26T15:08:06.302Z,30.23
2018-11-26T15:10:33.804Z,29.77
2018-11-26T15:13:01.226Z,28.97
2018-11-26T15:15:28.714Z,27.93
2018-11-26T15:17:56.237Z,27.27
2018-11-26T15:20:24.243Z,29.90
2018-11-26T15:22:51.704Z,29.37
2018-11-26T15:25:19.155Z,36.00
2018-11-26T15:27:46.586Z,14.93
2018-11-26T15:30:14.027Z,27.98
2018-11-26T15:32:41.463Z,34.17
2018-11-26T15:35:09.391Z,35.23
2018-11-26T15:37:36.821Z,31.73
2018-11-26T15:40:04.320Z,34.13
2018-11-26T15:42:31.759Z,30.00
2018-11-26T15:44:59.230Z,33.87
2018-11-26T15:47:26.678Z,33.90
2018-11-26T15:49:54.738Z,34.13
2018-11-26T15:52:22.160Z,34.93
2018-11-26T15:54:49.614Z,33.37
2018-11-26T15:57:17.056Z,34.60
2018-11-26T15:59:44.583Z,33.87
2018-11-26T16:02:12.006Z,39.38
2018-11-26T16:04:39.431Z,32.53
2018-11-26T16:07:07.047Z,33.25
2018-11-26T16:09:34.520Z,32.77
2018-11-26T16:12:01.980Z,35.00
2018-11-26T16:14:29.401Z,31.67
2018-11-26T16:16:56.833Z,34.17
2018-11-26T16:19:24.256Z,32.73
2018-11-26T16:21:51.698Z,35.07
2018-11-26T16:24:19.198Z,33.23
2018-11-26T16:26:46.704Z,35.17
2018-11-26T16:29:14.182Z,30.35
2018-11-26T16:31:41.635Z,36.90
2018-11-26T16:34:09.076Z,33.98
2018-11-26T16:36:36.503Z,35.17
2018-11-26T16:39:05.915Z,35.50
2018-11-26T16:41:33.535Z,33.30
2018-11-26T16:44:01.272Z,29.07
2018-11-26T16:46:28.699Z,32.38
2018-11-26T16:48:56.111Z,34.23
2018-11-26T16:51:23.652Z,31.70
2018-11-26T16:53:51.080Z,36.43
2018-11-26T16:56:18.518Z,31.37
2018-11-26T16:58:46.023Z,28.60
2018-11-26T17:01:13.487Z,32.83
2018-11-26T17:03:40.944Z,33.80
2018-11-26T17:06:08.371Z,30.15
2018-11-26T17:08:35.799Z,32.53
2018-11-26T17:11:03.224Z,29.45
2018-11-26T17:13:30.660Z,33.97
2018-11-26T17:15:58.132Z,31.20
2018-11-26T17:18:25.591Z,33.87
2018-11-26T17:20:53.036Z,38.67
2018-11-26T17:23:20.475Z,22.07
2018-11-26T17:25:47.912Z,31.62
2018-11-26T17:28:15.356Z,22.23
2018-11-26T17:30:42.787Z,24.27
2018-11-26T17:33:10.216Z,32.27
2018-11-26T17:35:37.645Z,30.15
2018-11-26T17:38:05.144Z,32.10
2018-11-26T17:40:32.608Z,35.20
2018-11-26T17:43:01.782Z,33.30
2018-11-26T17:45:29.177Z,33.07
2018-11-26T17:47:56.626Z,31.03
2018-11-26T17:50:24.052Z,33.07
2018-11-26T17:52:51.526Z,35.30
2018-11-26T17:55:18.989Z,33.97
2018-11-26T17:57:46.421Z,40.70
2018-11-26T18:00:13.868Z,33.63
2018-11-26T18:02:41.304Z,34.38
2018-11-26T18:05:08.727Z,36.20
2018-11-26T18:07:36.172Z,31.97
2018-11-26T18:10:03.597Z,29.63
2018-11-26T18:12:31.035Z,33.75
2018-11-26T18:14:58.545Z,34.03
2018-11-26T18:17:25.976Z,32.73
2018-11-26T18:19:53.464Z,34.50
2018-11-26T18:22:20.924Z,35.50
2018-11-26T18:24:48.375Z,36.30
2018-11-26T18:27:15.803Z,40.43
2018-11-26T18:29:43.989Z,40.07
2018-11-26T18:32:11.399Z,33.37
2018-11-26T18:34:38.920Z,38.45
2018-11-26T18:37:06.363Z,35.27
2018-11-26T18:39:33.807Z,31.17
2018-11-26T18:42:01.299Z,35.00
2018-11-26T18:44:28.756Z,37.08
2018-11-26T18:46:56.184Z,37.37
2018-11-26T18:49:23.677Z,34.83
2018-11-26T18:51:51.209Z,35.80
2018-11-26T18:54:18.678Z,31.33
2018-11-26T18:56:46.141Z,35.33
2018-11-26T18:59:13.595Z,31.42
2018-11-26T19:01:41.028Z,33.90
2018-11-26T19:04:08.469Z,35.43
2018-11-26T19:06:35.892Z,38.63
2018-11-26T19:09:03.351Z,34.58
2018-11-26T19:11:30.795Z,34.93
2018-11-26T19:13:58.245Z,39.33
2018-11-26T19:16:25.689Z,27.70
2018-11-26T19:18:53.128Z,35.50
2018-11-26T19:21:20.560Z,30.47
2018-11-26T19:23:47.991Z,36.03
2018-11-26T19:26:17.599Z,31.87
2018-11-26T19:28:45.024Z,34.95
2018-11-26T19:31:12.463Z,35.70
2018-11-26T19:33:39.954Z,30.73
2018-11-26T19:36:07.374Z,34.57
2018-11-26T19:38:34.809Z,32.70
2018-11-26T19:41:02.848Z,37.10
2018-11-26T19:43:30.288Z,31.87
2018-11-26T19:45:57.737Z,31.50
2018-11-26T19:48:25.172Z,29.70
2018-11-26T19:50:52.673Z,33.65
2018-11-26T19:53:20.108Z,33.90
2018-11-26T19:55:47.547Z,34.95
2018-11-26T19:58:14.979Z,31.50
2018-11-26T20:00:42.415Z,30.63
2018-11-26T20:03:09.960Z,37.10
2018-11-26T20:05:37.405Z,33.50
2018-11-26T20:08:04.838Z,40.93
2018-11-26T20:10:32.268Z,39.00
2018-11-26T20:12:59.713Z,34.53
2018-11-26T20:15:27.144Z,34.60
2018-11-26T20:17:59.068Z,38.17
2018-11-26T20:20:22.016Z,36.90
2018-11-26T20:22:49.475Z,35.03
2018-11-26T20:25:16.906Z,38.63
2018-11-26T20:27:44.708Z,32.03
2018-11-26T20:30:12.327Z,35.17
2018-11-26T20:32:39.751Z,35.43
2018-11-26T20:35:07.183Z,36.23
2018-11-26T20:37:34.672Z,36.58
2018-11-26T20:40:02.131Z,42.83
2018-11-26T20:42:29.554Z,38.85
2018-11-26T20:44:56.996Z,39.10
2018-11-26T20:47:24.430Z,31.23
2018-11-26T20:49:51.864Z,33.83
2018-11-26T20:52:19.305Z,28.95
2018-11-26T20:54:46.745Z,35.17
2018-11-26T20:57:14.172Z,32.90
2018-11-26T20:59:41.608Z,44.10
2018-11-26T21:02:09.037Z,38.43
2018-11-26T21:04:36.495Z,45.20
2018-11-26T21:07:03.935Z,43.13
2018-11-26T21:09:31.392Z,38.13
2018-11-26T21:11:58.800Z,41.10
2018-11-26T21:14:26.329Z,43.17
2018-11-26T21:16:53.792Z,41.70
2018-11-26T21:19:21.226Z,38.17
2018-11-26T21:21:48.653Z,41.48
2018-11-26T21:24:16.084Z,43.53
2018-11-26T21:26:43.620Z,41.85
2018-11-26T21:29:11.080Z,35.47
2018-11-26T21:31:38.507Z,41.98
2018-11-26T21:34:05.940Z,38.30
2018-11-26T21:36:33.452Z,37.65
2018-11-26T21:39:00.880Z,34.93
2018-11-26T21:41:28.302Z,40.20
2018-11-26T21:43:55.836Z,41.23
2018-11-26T21:46:23.256Z,35.03
2018-11-26T21:48:50.691Z,42.83
2018-11-26T21:51:18.195Z,42.78
2018-11-26T21:53:45.618Z,51.07
2018-11-26T21:56:13.620Z,38.00
2018-11-26T21:58:41.081Z,37.60
2018-11-26T22:01:08.504Z,41.13
2018-11-26T22:03:35.955Z,43.03
2018-11-26T22:06:03.400Z,39.83
2018-11-26T22:08:30.829Z,41.43
2018-11-26T22:10:58.260Z,45.48
2018-11-26T22:13:26.063Z,51.20
2018-11-26T22:15:53.503Z,46.13
2018-11-26T22:18:20.933Z,49.87
2018-11-26T22:20:48.398Z,42.93
2018-11-26T22:23:15.840Z,52.00
2018-11-26T22:25:43.272Z,51.40
2018-11-26T22:28:10.709Z,46.80
2018-11-26T22:30:38.159Z,50.03
2018-11-26T22:33:05.582Z,46.55
2018-11-26T22:35:33.005Z,47.33
2018-11-26T22:38:00.435Z,46.15
2018-11-26T22:40:27.887Z,42.57
2018-11-26T22:42:55.507Z,45.03
2018-11-26T22:45:23.247Z,53.03
2018-11-26T22:47:50.681Z,36.28
2018-11-26T22:50:18.100Z,51.30
2018-11-26T22:52:45.532Z,43.00
2018-11-26T22:55:12.974Z,46.23
2018-11-26T22:57:40.415Z,49.77
2018-11-26T23:00:07.852Z,47.80
2018-11-26T23:02:35.291Z,41.83
2018-11-26T23:05:02.722Z,44.35
2018-11-26T23:07:30.151Z,50.73
2018-11-26T23:09:57.647Z,46.30
2018-11-26T23:12:25.084Z,47.70
2018-11-26T23:14:52.568Z,47.98
2018-11-26T23:17:19.995Z,53.17
2018-11-26T23:19:47.422Z,46.97
2018-11-26T23:22:14.939Z,50.20
2018-11-26T23:24:42.399Z,43.10
2018-11-26T23:27:09.832Z,43.50
2018-11-26T23:29:37.398Z,37.63
2018-11-26T23:32:04.810Z,37.30
2018-11-26T23:34:32.344Z,31.87
2018-11-26T23:36:59.772Z,30.60
2018-11-26T23:39:27.417Z,34.25
2018-11-26T23:41:54.708Z,35.73
2018-11-26T23:44:22.141Z,32.60
2018-11-26T23:46:49.577Z,31.27
2018-11-26T23:49:17.021Z,32.90
2018-11-26T23:51:44.444Z,32.80
2018-11-26T23:54:11.880Z,30.60
2018-11-26T23:56:39.357Z,26.13
2018-11-26T23:59:06.784Z,31.15
